sensor_id;sensor_type;location;lat;lon;timestamp;P1;durP1;ratioP1;P2;durP2;ratioP2
23590;SDS011;11973;52.098;7.582;2022-10-04T00:01:27;3.65;;;3.45;;
23590;SDS011;11973;52.098;7.582;2022-10-04T00:04:06;3.67;;;3.47;;
23590;SDS011;11973;52.098;7.582;2022-10-04T00:06:35;3.47;;;3.38;;
23590;SDS011;11973;52.098;7.582;2022-10-04T00:09:13;4.63;;;3.85;;
23590;SDS011;11973;52.098;7.582;2022-10-04T00:11:45;3.90;;;3.67;;
23590;SDS011;11973;52.098;7.582;2022-10-04T00:14:19;4.47;;;4.28;;
23590;SDS011;11973;52.098;7.582;2022-10-04T00:16:52;3.95;;;3.85;;
23590;SDS011;11973;52.098;7.582;2022-10-04T00:19:21;4.57;;;4.38;;
23590;SDS011;11973;52.098;7.582;2022-10-04T00:22:10;4.40;;;4.05;;
23590;SDS011;11973;52.098;7.582;2022-10-04T00:24:59;4.60;;;4.28;;
23590;SDS011;11973;52.098;7.582;2022-10-04T00:27:37;4.70;;;4.38;;
23590;SDS011;11973;52.098;7.582;2022-10-04T00:37:55;4.63;;;4.28;;
23590;SDS011;11973;52.098;7.582;2022-10-04T00:40:23;4.03;;;3.75;;
23590;SDS011;11973;52.098;7.582;2022-10-04T00:43:03;4.30;;;3.92;;
23590;SDS011;11973;52.098;7.582;2022-10-04T00:45:38;4.10;;;3.90;;
23590;SDS011;11973;52.098;7.582;2022-10-04T00:48:48;4.45;;;3.75;;
23590;SDS011;11973;52.098;7.582;2022-10-04T00:54:15;4.63;;;4.22;;
23590;SDS011;11973;52.098;7.582;2022-10-04T00:56:48;4.82;;;4.72;;
23590;SDS011;11973;52.098;7.582;2022-10-04T01:02:05;4.90;;;4.70;;
23590;SDS011;11973;52.098;7.582;2022-10-04T01:07:18;5.97;;;5.55;;
23590;SDS011;11973;52.098;7.582;2022-10-04T01:09:51;5.20;;;4.95;;
23590;SDS011;11973;52.098;7.582;2022-10-04T01:12:35;5.35;;;5.10;;
23590;SDS011;11973;52.098;7.582;2022-10-04T01:15:06;5.40;;;5.00;;
23590;SDS011;11973;52.098;7.582;2022-10-04T01:17:33;5.30;;;5.10;;
23590;SDS011;11973;52.098;7.582;2022-10-04T01:19:58;5.93;;;5.47;;
23590;SDS011;11973;52.098;7.582;2022-10-04T01:22:31;6.07;;;5.40;;
23590;SDS011;11973;52.098;7.582;2022-10-04T01:25:00;5.80;;;5.53;;
23590;SDS011;11973;52.098;7.582;2022-10-04T01:27:31;5.55;;;5.18;;
23590;SDS011;11973;52.098;7.582;2022-10-04T01:30:11;6.35;;;5.95;;
23590;SDS011;11973;52.098;7.582;2022-10-04T01:32:40;6.47;;;5.95;;
23590;SDS011;11973;52.098;7.582;2022-10-04T01:35:10;6.82;;;6.30;;
23590;SDS011;11973;52.098;7.582;2022-10-04T01:37:38;6.95;;;6.45;;
23590;SDS011;11973;52.098;7.582;2022-10-04T01:40:04;8.10;;;7.55;;
23590;SDS011;11973;52.098;7.582;2022-10-04T01:45:39;7.55;;;6.97;;
23590;SDS011;11973;52.098;7.582;2022-10-04T01:48:11;7.82;;;7.15;;
23590;SDS011;11973;52.098;7.582;2022-10-04T01:53:26;8.32;;;7.55;;
23590;SDS011;11973;52.098;7.582;2022-10-04T01:56:02;7.72;;;7.13;;
23590;SDS011;11973;52.098;7.582;2022-10-04T01:58:42;7.38;;;6.88;;
23590;SDS011;11973;52.098;7.582;2022-10-04T02:01:16;7.65;;;7.20;;
23590;SDS011;11973;52.098;7.582;2022-10-04T02:04:10;8.13;;;7.35;;
23590;SDS011;11973;52.098;7.582;2022-10-04T02:06:43;7.55;;;7.00;;
23590;SDS011;11973;52.098;7.582;2022-10-04T02:09:15;8.20;;;7.35;;
23590;SDS011;11973;52.098;7.582;2022-10-04T02:11:48;8.15;;;7.43;;
23590;SDS011;11973;52.098;7.582;2022-10-04T02:14:18;7.63;;;7.13;;
23590;SDS011;11973;52.098;7.582;2022-10-04T02:16:53;7.82;;;7.43;;
23590;SDS011;11973;52.098;7.582;2022-10-04T02:19:20;7.60;;;6.97;;
23590;SDS011;11973;52.098;7.582;2022-10-04T02:21:49;7.38;;;6.95;;
23590;SDS011;11973;52.098;7.582;2022-10-04T02:24:16;7.78;;;7.35;;
23590;SDS011;11973;52.098;7.582;2022-10-04T02:26:47;8.43;;;7.70;;
23590;SDS011;11973;52.098;7.582;2022-10-04T02:29:16;7.70;;;7.10;;
23590;SDS011;11973;52.098;7.582;2022-10-04T02:31:43;7.90;;;7.35;;
23590;SDS011;11973;52.098;7.582;2022-10-04T02:34:28;8.45;;;7.75;;
23590;SDS011;11973;52.098;7.582;2022-10-04T02:36:54;7.85;;;7.18;;
23590;SDS011;11973;52.098;7.582;2022-10-04T02:39:25;8.30;;;7.57;;
23590;SDS011;11973;52.098;7.582;2022-10-04T02:42:01;8.38;;;7.30;;
23590;SDS011;11973;52.098;7.582;2022-10-04T02:44:45;8.38;;;7.63;;
23590;SDS011;11973;52.098;7.582;2022-10-04T02:47:19;8.00;;;7.32;;
23590;SDS011;11973;52.098;7.582;2022-10-04T02:52:25;7.72;;;7.10;;
23590;SDS011;11973;52.098;7.582;2022-10-04T02:55:05;12.52;;;7.90;;
23590;SDS011;11973;52.098;7.582;2022-10-04T02:57:34;8.43;;;7.57;;
23590;SDS011;11973;52.098;7.582;2022-10-04T03:00:22;8.27;;;7.82;;
23590;SDS011;11973;52.098;7.582;2022-10-04T03:03:11;9.10;;;8.38;;
23590;SDS011;11973;52.098;7.582;2022-10-04T03:05:40;9.52;;;8.55;;
23590;SDS011;11973;52.098;7.582;2022-10-04T03:08:11;9.50;;;8.60;;
23590;SDS011;11973;52.098;7.582;2022-10-04T03:10:37;9.25;;;8.35;;
23590;SDS011;11973;52.098;7.582;2022-10-04T03:13:08;9.05;;;8.15;;
23590;SDS011;11973;52.098;7.582;2022-10-04T03:15:35;9.68;;;8.93;;
23590;SDS011;11973;52.098;7.582;2022-10-04T03:18:02;9.35;;;8.55;;
23590;SDS011;11973;52.098;7.582;2022-10-04T03:20:28;9.90;;;8.90;;
23590;SDS011;11973;52.098;7.582;2022-10-04T03:22:54;9.48;;;8.55;;
23590;SDS011;11973;52.098;7.582;2022-10-04T03:25:21;10.10;;;9.18;;
23590;SDS011;11973;52.098;7.582;2022-10-04T03:27:55;10.85;;;9.00;;
23590;SDS011;11973;52.098;7.582;2022-10-04T03:30:26;9.95;;;9.13;;
23590;SDS011;11973;52.098;7.582;2022-10-04T03:32:51;11.25;;;9.63;;
23590;SDS011;11973;52.098;7.582;2022-10-04T03:35:25;10.32;;;9.50;;
23590;SDS011;11973;52.098;7.582;2022-10-04T03:37:58;10.68;;;9.60;;
23590;SDS011;11973;52.098;7.582;2022-10-04T03:40:28;12.85;;;10.15;;
23590;SDS011;11973;52.098;7.582;2022-10-04T03:42:56;12.45;;;10.15;;
23590;SDS011;11973;52.098;7.582;2022-10-04T03:45:24;11.30;;;10.38;;
23590;SDS011;11973;52.098;7.582;2022-10-04T03:47:52;11.93;;;10.93;;
23590;SDS011;11973;52.098;7.582;2022-10-04T03:50:29;13.57;;;11.15;;
23590;SDS011;11973;52.098;7.582;2022-10-04T03:53:02;16.73;;;11.68;;
23590;SDS011;11973;52.098;7.582;2022-10-04T03:55:40;11.82;;;11.00;;
23590;SDS011;11973;52.098;7.582;2022-10-04T03:58:09;13.32;;;11.00;;
23590;SDS011;11973;52.098;7.582;2022-10-04T04:00:40;17.88;;;11.20;;
23590;SDS011;11973;52.098;7.582;2022-10-04T04:03:11;12.63;;;11.50;;
23590;SDS011;11973;52.098;7.582;2022-10-04T04:05:41;12.55;;;11.25;;
23590;SDS011;11973;52.098;7.582;2022-10-04T04:08:13;16.48;;;11.85;;
23590;SDS011;11973;52.098;7.582;2022-10-04T04:10:51;13.02;;;11.82;;
23590;SDS011;11973;52.098;7.582;2022-10-04T05:01:56;15.05;;;12.50;;
23590;SDS011;11973;52.098;7.582;2022-10-04T05:04:23;18.45;;;12.40;;
23590;SDS011;11973;52.098;7.582;2022-10-04T05:06:59;14.23;;;13.02;;
23590;SDS011;11973;52.098;7.582;2022-10-04T05:09:34;14.77;;;13.10;;
23590;SDS011;11973;52.098;7.582;2022-10-04T05:14:57;15.32;;;13.48;;
23590;SDS011;11973;52.098;7.582;2022-10-04T05:17:24;17.95;;;12.85;;
23590;SDS011;11973;52.098;7.582;2022-10-04T05:22:36;15.75;;;12.52;;
23590;SDS011;11973;52.098;7.582;2022-10-04T05:25:11;15.77;;;13.43;;
23590;SDS011;11973;52.098;7.582;2022-10-04T05:27:41;17.38;;;13.20;;
23590;SDS011;11973;52.098;7.582;2022-10-04T05:33:10;14.85;;;13.20;;
23590;SDS011;11973;52.098;7.582;2022-10-04T05:40:53;14.82;;;13.35;;
23590;SDS011;11973;52.098;7.582;2022-10-04T05:43:46;15.63;;;13.55;;
23590;SDS011;11973;52.098;7.582;2022-10-04T05:46:20;15.52;;;13.38;;
23590;SDS011;11973;52.098;7.582;2022-10-04T05:49:09;14.68;;;13.23;;
23590;SDS011;11973;52.098;7.582;2022-10-04T05:51:48;17.15;;;12.80;;
23590;SDS011;11973;52.098;7.582;2022-10-04T05:54:39;15.75;;;13.73;;
23590;SDS011;11973;52.098;7.582;2022-10-04T06:00:00;15.15;;;13.65;;
23590;SDS011;11973;52.098;7.582;2022-10-04T06:05:22;17.50;;;14.45;;
23590;SDS011;11973;52.098;7.582;2022-10-04T06:07:58;16.38;;;14.75;;
23590;SDS011;11973;52.098;7.582;2022-10-04T06:24:43;24.65;;;17.83;;
23590;SDS011;11973;52.098;7.582;2022-10-04T06:27:20;26.05;;;18.20;;
23590;SDS011;11973;52.098;7.582;2022-10-04T06:30:15;24.17;;;18.40;;
23590;SDS011;11973;52.098;7.582;2022-10-04T06:41:37;22.98;;;18.92;;
23590;SDS011;11973;52.098;7.582;2022-10-04T06:44:47;22.40;;;19.52;;
23590;SDS011;11973;52.098;7.582;2022-10-04T06:50:24;27.33;;;21.52;;
23590;SDS011;11973;52.098;7.582;2022-10-04T07:00:56;21.08;;;18.98;;
23590;SDS011;11973;52.098;7.582;2022-10-04T07:03:45;26.55;;;19.88;;
23590;SDS011;11973;52.098;7.582;2022-10-04T07:06:19;24.67;;;20.00;;
23590;SDS011;11973;52.098;7.582;2022-10-04T07:09:00;29.45;;;19.70;;
23590;SDS011;11973;52.098;7.582;2022-10-04T07:14:36;21.50;;;19.17;;
23590;SDS011;11973;52.098;7.582;2022-10-04T07:17:10;22.25;;;19.13;;
23590;SDS011;11973;52.098;7.582;2022-10-04T07:19:40;24.23;;;19.67;;
23590;SDS011;11973;52.098;7.582;2022-10-04T07:28:00;19.88;;;17.77;;
23590;SDS011;11973;52.098;7.582;2022-10-04T07:33:30;20.60;;;16.70;;
23590;SDS011;11973;52.098;7.582;2022-10-04T07:36:02;20.58;;;16.63;;
23590;SDS011;11973;52.098;7.582;2022-10-04T07:38:31;19.38;;;16.20;;
23590;SDS011;11973;52.098;7.582;2022-10-04T07:41:11;19.17;;;14.85;;
23590;SDS011;11973;52.098;7.582;2022-10-04T07:43:51;19.23;;;15.43;;
23590;SDS011;11973;52.098;7.582;2022-10-04T07:46:42;19.83;;;15.35;;
23590;SDS011;11973;52.098;7.582;2022-10-04T07:49:12;16.02;;;14.45;;
23590;SDS011;11973;52.098;7.582;2022-10-04T07:51:42;18.73;;;14.80;;
23590;SDS011;11973;52.098;7.582;2022-10-04T07:54:21;15.45;;;13.68;;
23590;SDS011;11973;52.098;7.582;2022-10-04T07:57:10;18.05;;;14.38;;
23590;SDS011;11973;52.098;7.582;2022-10-04T08:02:18;20.92;;;13.93;;
23590;SDS011;11973;52.098;7.582;2022-10-04T08:04:55;18.08;;;13.90;;
23590;SDS011;11973;52.098;7.582;2022-10-04T08:12:48;19.42;;;12.75;;
23590;SDS011;11973;52.098;7.582;2022-10-04T08:15:28;14.10;;;11.90;;
23590;SDS011;11973;52.098;7.582;2022-10-04T08:18:02;12.98;;;11.63;;
23590;SDS011;11973;52.098;7.582;2022-10-04T08:28:53;11.40;;;10.40;;
23590;SDS011;11973;52.098;7.582;2022-10-04T08:32:13;10.35;;;9.55;;
23590;SDS011;11973;52.098;7.582;2022-10-04T08:58:33;7.72;;;6.80;;
23590;SDS011;11973;52.098;7.582;2022-10-04T09:09:05;6.32;;;5.95;;
23590;SDS011;11973;52.098;7.582;2022-10-04T09:17:28;5.55;;;5.28;;
23590;SDS011;11973;52.098;7.582;2022-10-04T09:25:42;8.73;;;5.82;;
23590;SDS011;11973;52.098;7.582;2022-10-04T09:28:52;5.35;;;5.18;;
23590;SDS011;11973;52.098;7.582;2022-10-04T09:31:49;6.03;;;5.50;;
23590;SDS011;11973;52.098;7.582;2022-10-04T10:06:21;5.22;;;4.70;;
23590;SDS011;11973;52.098;7.582;2022-10-04T10:11:53;4.65;;;4.30;;
23590;SDS011;11973;52.098;7.582;2022-10-04T10:17:57;4.25;;;4.00;;
23590;SDS011;11973;52.098;7.582;2022-10-04T10:21:14;4.22;;;3.85;;
23590;SDS011;11973;52.098;7.582;2022-10-04T10:23:52;4.45;;;4.13;;
23590;SDS011;11973;52.098;7.582;2022-10-04T10:46:44;4.38;;;3.03;;
23590;SDS011;11973;52.098;7.582;2022-10-04T10:49:40;2.90;;;2.70;;
23590;SDS011;11973;52.098;7.582;2022-10-04T11:00:39;3.88;;;3.50;;
23590;SDS011;11973;52.098;7.582;2022-10-04T11:06:20;3.38;;;3.03;;
23590;SDS011;11973;52.098;7.582;2022-10-04T11:12:04;3.45;;;3.22;;
23590;SDS011;11973;52.098;7.582;2022-10-04T11:18:36;4.10;;;3.35;;
23590;SDS011;11973;52.098;7.582;2022-10-04T11:20:47;3.58;;;3.35;;
23590;SDS011;11973;52.098;7.582;2022-10-04T11:26:14;4.05;;;2.90;;
23590;SDS011;11973;52.098;7.582;2022-10-04T11:28:53;2.95;;;2.72;;
23590;SDS011;11973;52.098;7.582;2022-10-04T11:40:01;2.60;;;2.42;;
23590;SDS011;11973;52.098;7.582;2022-10-04T12:02:13;3.17;;;2.20;;
23590;SDS011;11973;52.098;7.582;2022-10-04T12:05:00;3.83;;;2.70;;
23590;SDS011;11973;52.098;7.582;2022-10-04T12:10:21;4.03;;;3.47;;
23590;SDS011;11973;52.098;7.582;2022-10-04T12:37:45;3.03;;;2.88;;
23590;SDS011;11973;52.098;7.582;2022-10-04T12:46:50;2.65;;;2.55;;
23590;SDS011;11973;52.098;7.582;2022-10-04T12:58:19;3.80;;;2.92;;
23590;SDS011;11973;52.098;7.582;2022-10-04T13:00:57;3.20;;;2.50;;
23590;SDS011;11973;52.098;7.582;2022-10-04T13:06:22;3.67;;;3.33;;
23590;SDS011;11973;52.098;7.582;2022-10-04T13:12:06;3.13;;;2.80;;
23590;SDS011;11973;52.098;7.582;2022-10-04T13:22:44;4.35;;;2.72;;
23590;SDS011;11973;52.098;7.582;2022-10-04T13:28:00;2.95;;;2.45;;
23590;SDS011;11973;52.098;7.582;2022-10-04T13:30:44;2.50;;;2.40;;
23590;SDS011;11973;52.098;7.582;2022-10-04T13:33:27;2.17;;;2.08;;
23590;SDS011;11973;52.098;7.582;2022-10-04T13:49:56;5.43;;;2.80;;
23590;SDS011;11973;52.098;7.582;2022-10-04T13:52:46;3.15;;;2.25;;
23590;SDS011;11973;52.098;7.582;2022-10-04T14:02:11;2.38;;;2.17;;
23590;SDS011;11973;52.098;7.582;2022-10-04T14:05:10;2.60;;;2.50;;
23590;SDS011;11973;52.098;7.582;2022-10-04T14:28:30;2.38;;;2.20;;
23590;SDS011;11973;52.098;7.582;2022-10-04T14:37:16;2.25;;;1.90;;
23590;SDS011;11973;52.098;7.582;2022-10-04T14:39:58;1.90;;;1.80;;
23590;SDS011;11973;52.098;7.582;2022-10-04T15:01:18;3.38;;;1.30;;
23590;SDS011;11973;52.098;7.582;2022-10-04T15:06:49;1.48;;;1.40;;
23590;SDS011;11973;52.098;7.582;2022-10-04T15:09:29;1.80;;;1.20;;
23590;SDS011;11973;52.098;7.582;2022-10-04T15:23:57;1.38;;;1.27;;
23590;SDS011;11973;52.098;7.582;2022-10-04T15:34:06;1.00;;;1.00;;
23590;SDS011;11973;52.098;7.582;2022-10-04T15:36:41;1.23;;;1.15;;
23590;SDS011;11973;52.098;7.582;2022-10-04T15:42:20;1.33;;;1.23;;
23590;SDS011;11973;52.098;7.582;2022-10-04T15:47:22;1.63;;;1.42;;
23590;SDS011;11973;52.098;7.582;2022-10-04T15:49:58;1.20;;;1.20;;
23590;SDS011;11973;52.098;7.582;2022-10-04T15:55:30;1.20;;;1.10;;
23590;SDS011;11973;52.098;7.582;2022-10-04T16:07:07;1.20;;;1.20;;
23590;SDS011;11973;52.098;7.582;2022-10-04T16:12:19;1.20;;;1.20;;
23590;SDS011;11973;52.098;7.582;2022-10-04T16:20:12;1.40;;;1.40;;
23590;SDS011;11973;52.098;7.582;2022-10-04T16:26:03;1.70;;;1.60;;
23590;SDS011;11973;52.098;7.582;2022-10-04T16:42:32;3.10;;;1.60;;
23590;SDS011;11973;52.098;7.582;2022-10-04T16:47:35;3.38;;;1.50;;
23590;SDS011;11973;52.098;7.582;2022-10-04T16:50:42;3.53;;;1.85;;
23590;SDS011;11973;52.098;7.582;2022-10-04T16:58:48;2.15;;;2.03;;
23590;SDS011;11973;52.098;7.582;2022-10-04T17:07:07;4.97;;;4.65;;
23590;SDS011;11973;52.098;7.582;2022-10-04T17:12:28;7.43;;;6.75;;
23590;SDS011;11973;52.098;7.582;2022-10-04T17:23:18;4.28;;;3.95;;
23590;SDS011;11973;52.098;7.582;2022-10-04T17:26:10;3.63;;;3.42;;
23590;SDS011;11973;52.098;7.582;2022-10-04T17:32:04;3.80;;;3.42;;
23590;SDS011;11973;52.098;7.582;2022-10-04T17:34:45;4.30;;;2.97;;
23590;SDS011;11973;52.098;7.582;2022-10-04T17:40:06;2.95;;;2.88;;
23590;SDS011;11973;52.098;7.582;2022-10-04T17:48:18;3.40;;;3.30;;
23590;SDS011;11973;52.098;7.582;2022-10-04T17:54:17;3.75;;;3.40;;
23590;SDS011;11973;52.098;7.582;2022-10-04T17:57:26;3.45;;;3.13;;
23590;SDS011;11973;52.098;7.582;2022-10-04T18:00:08;4.10;;;3.83;;
23590;SDS011;11973;52.098;7.582;2022-10-04T18:05:21;4.13;;;3.85;;
23590;SDS011;11973;52.098;7.582;2022-10-04T18:10:32;3.72;;;3.58;;
23590;SDS011;11973;52.098;7.582;2022-10-04T18:13:24;3.10;;;3.00;;
23590;SDS011;11973;52.098;7.582;2022-10-04T18:19:00;2.85;;;2.80;;
23590;SDS011;11973;52.098;7.582;2022-10-04T18:21:47;4.53;;;3.50;;
23590;SDS011;11973;52.098;7.582;2022-10-04T18:27:00;3.45;;;3.15;;
23590;SDS011;11973;52.098;7.582;2022-10-04T18:29:40;3.40;;;3.30;;
23590;SDS011;11973;52.098;7.582;2022-10-04T18:32:15;4.20;;;3.95;;
23590;SDS011;11973;52.098;7.582;2022-10-04T18:34:56;4.47;;;4.07;;
23590;SDS011;11973;52.098;7.582;2022-10-04T18:37:41;3.97;;;3.88;;
23590;SDS011;11973;52.098;7.582;2022-10-04T18:40:23;6.25;;;5.63;;
23590;SDS011;11973;52.098;7.582;2022-10-04T18:42:53;6.05;;;5.60;;
23590;SDS011;11973;52.098;7.582;2022-10-04T18:47:52;7.80;;;6.38;;
23590;SDS011;11973;52.098;7.582;2022-10-04T18:55:20;4.75;;;4.47;;
23590;SDS011;11973;52.098;7.582;2022-10-04T19:04:11;5.40;;;4.60;;
23590;SDS011;11973;52.098;7.582;2022-10-04T19:10:23;4.40;;;4.20;;
23590;SDS011;11973;52.098;7.582;2022-10-04T19:13:22;4.95;;;4.40;;
23590;SDS011;11973;52.098;7.582;2022-10-04T19:18:46;4.50;;;4.30;;
23590;SDS011;11973;52.098;7.582;2022-10-04T19:21:27;5.45;;;5.15;;
23590;SDS011;11973;52.098;7.582;2022-10-04T19:26:42;5.13;;;4.93;;
23590;SDS011;11973;52.098;7.582;2022-10-04T19:32:10;6.05;;;4.97;;
23590;SDS011;11973;52.098;7.582;2022-10-04T19:40:06;5.50;;;5.20;;
23590;SDS011;11973;52.098;7.582;2022-10-04T19:45:58;5.82;;;5.53;;
23590;SDS011;11973;52.098;7.582;2022-10-04T19:48:47;5.65;;;5.45;;
23590;SDS011;11973;52.098;7.582;2022-10-04T19:54:22;6.32;;;5.75;;
23590;SDS011;11973;52.098;7.582;2022-10-04T19:56:56;5.90;;;5.47;;
23590;SDS011;11973;52.098;7.582;2022-10-04T19:59:27;6.05;;;5.75;;
23590;SDS011;11973;52.098;7.582;2022-10-04T20:01:54;6.05;;;5.50;;
23590;SDS011;11973;52.098;7.582;2022-10-04T20:04:19;6.38;;;5.88;;
23590;SDS011;11973;52.098;7.582;2022-10-04T20:15:49;7.47;;;6.88;;
23590;SDS011;11973;52.098;7.582;2022-10-04T20:26:08;9.00;;;8.20;;
23590;SDS011;11973;52.098;7.582;2022-10-04T20:28:39;8.88;;;8.10;;
23590;SDS011;11973;52.098;7.582;2022-10-04T20:31:07;10.05;;;9.00;;
23590;SDS011;11973;52.098;7.582;2022-10-04T20:37:01;9.93;;;9.00;;
23590;SDS011;11973;52.098;7.582;2022-10-04T20:42:53;10.20;;;9.15;;
23590;SDS011;11973;52.098;7.582;2022-10-04T20:45:18;9.38;;;8.55;;
23590;SDS011;11973;52.098;7.582;2022-10-04T20:47:53;8.65;;;7.95;;
23590;SDS011;11973;52.098;7.582;2022-10-04T20:50:29;8.63;;;7.82;;
23590;SDS011;11973;52.098;7.582;2022-10-04T20:53:03;9.23;;;8.43;;
23590;SDS011;11973;52.098;7.582;2022-10-04T20:55:40;11.70;;;8.88;;
23590;SDS011;11973;52.098;7.582;2022-10-04T21:00:51;9.50;;;8.75;;
23590;SDS011;11973;52.098;7.582;2022-10-04T21:03:19;10.73;;;9.77;;
23590;SDS011;11973;52.098;7.582;2022-10-04T21:05:57;11.05;;;10.07;;
23590;SDS011;11973;52.098;7.582;2022-10-04T21:08:34;10.48;;;9.48;;
23590;SDS011;11973;52.098;7.582;2022-10-04T21:22:07;10.18;;;9.38;;
23590;SDS011;11973;52.098;7.582;2022-10-04T21:24:40;9.60;;;8.73;;
23590;SDS011;11973;52.098;7.582;2022-10-04T21:27:24;9.18;;;8.68;;
23590;SDS011;11973;52.098;7.582;2022-10-04T21:29:56;10.05;;;9.10;;
23590;SDS011;11973;52.098;7.582;2022-10-04T21:32:23;10.18;;;9.20;;
23590;SDS011;11973;52.098;7.582;2022-10-04T21:34:50;10.52;;;9.52;;
23590;SDS011;11973;52.098;7.582;2022-10-04T21:37:16;9.65;;;8.60;;
23590;SDS011;11973;52.098;7.582;2022-10-04T21:39:42;9.25;;;8.48;;
23590;SDS011;11973;52.098;7.582;2022-10-04T21:42:08;9.75;;;8.38;;
23590;SDS011;11973;52.098;7.582;2022-10-04T21:44:34;12.48;;;8.57;;
23590;SDS011;11973;52.098;7.582;2022-10-04T21:47:00;9.63;;;8.88;;
23590;SDS011;11973;52.098;7.582;2022-10-04T21:49:26;10.52;;;9.55;;
23590;SDS011;11973;52.098;7.582;2022-10-04T21:51:52;13.75;;;10.00;;
23590;SDS011;11973;52.098;7.582;2022-10-04T21:54:17;13.75;;;12.40;;
23590;SDS011;11973;52.098;7.582;2022-10-04T21:56:43;14.25;;;12.32;;
23590;SDS011;11973;52.098;7.582;2022-10-04T21:59:09;10.68;;;9.73;;
23590;SDS011;11973;52.098;7.582;2022-10-04T22:01:34;12.07;;;10.70;;
23590;SDS011;11973;52.098;7.582;2022-10-04T22:04:00;12.27;;;11.05;;
23590;SDS011;11973;52.098;7.582;2022-10-04T22:06:26;12.38;;;11.15;;
23590;SDS011;11973;52.098;7.582;2022-10-04T22:08:51;12.40;;;9.88;;
23590;SDS011;11973;52.098;7.582;2022-10-04T22:11:17;11.68;;;10.27;;
23590;SDS011;11973;52.098;7.582;2022-10-04T22:13:43;10.20;;;8.82;;
23590;SDS011;11973;52.098;7.582;2022-10-04T22:16:10;9.50;;;8.70;;
23590;SDS011;11973;52.098;7.582;2022-10-04T22:18:37;10.15;;;9.05;;
23590;SDS011;11973;52.098;7.582;2022-10-04T22:21:03;9.73;;;8.93;;
23590;SDS011;11973;52.098;7.582;2022-10-04T22:23:30;13.05;;;11.85;;
23590;SDS011;11973;52.098;7.582;2022-10-04T22:26:15;13.38;;;12.13;;
23590;SDS011;11973;52.098;7.582;2022-10-04T22:28:45;12.55;;;11.10;;
23590;SDS011;11973;52.098;7.582;2022-10-04T22:31:13;13.30;;;11.57;;
23590;SDS011;11973;52.098;7.582;2022-10-04T22:33:41;14.85;;;12.48;;
23590;SDS011;11973;52.098;7.582;2022-10-04T22:38:37;18.58;;;14.25;;
23590;SDS011;11973;52.098;7.582;2022-10-04T22:41:09;14.63;;;11.50;;
23590;SDS011;11973;52.098;7.582;2022-10-04T22:43:36;17.10;;;13.40;;
23590;SDS011;11973;52.098;7.582;2022-10-04T22:46:02;22.48;;;14.63;;
23590;SDS011;11973;52.098;7.582;2022-10-04T22:48:28;31.85;;;23.33;;
23590;SDS011;11973;52.098;7.582;2022-10-04T22:50:53;91.57;;;67.43;;
23590;SDS011;11973;52.098;7.582;2022-10-04T22:53:20;71.63;;;63.40;;
23590;SDS011;11973;52.098;7.582;2022-10-04T22:55:47;39.00;;;34.80;;
23590;SDS011;11973;52.098;7.582;2022-10-04T22:58:14;36.90;;;31.92;;
23590;SDS011;11973;52.098;7.582;2022-10-04T23:00:41;32.40;;;29.02;;
23590;SDS011;11973;52.098;7.582;2022-10-04T23:03:15;19.52;;;17.52;;
23590;SDS011;11973;52.098;7.582;2022-10-04T23:05:42;12.15;;;10.93;;
23590;SDS011;11973;52.098;7.582;2022-10-04T23:08:09;14.10;;;11.57;;
23590;SDS011;11973;52.098;7.582;2022-10-04T23:10:34;12.10;;;11.05;;
23590;SDS011;11973;52.098;7.582;2022-10-04T23:13:00;12.65;;;11.40;;
23590;SDS011;11973;52.098;7.582;2022-10-04T23:15:26;12.65;;;11.55;;
23590;SDS011;11973;52.098;7.582;2022-10-04T23:17:52;10.88;;;9.77;;
23590;SDS011;11973;52.098;7.582;2022-10-04T23:20:22;11.10;;;9.90;;
23590;SDS011;11973;52.098;7.582;2022-10-04T23:22:49;11.80;;;10.43;;
23590;SDS011;11973;52.098;7.582;2022-10-04T23:25:18;12.50;;;10.35;;
23590;SDS011;11973;52.098;7.582;2022-10-04T23:27:44;10.32;;;9.35;;
23590;SDS011;11973;52.098;7.582;2022-10-04T23:30:15;13.05;;;10.25;;
23590;SDS011;11973;52.098;7.582;2022-10-04T23:32:46;11.00;;;9.63;;
23590;SDS011;11973;52.098;7.582;2022-10-04T23:35:17;10.57;;;9.68;;
23590;SDS011;11973;52.098;7.582;2022-10-04T23:37:48;11.65;;;10.50;;
23590;SDS011;11973;52.098;7.582;2022-10-04T23:40:15;10.73;;;9.80;;
23590;SDS011;11973;52.098;7.582;2022-10-04T23:42:43;16.27;;;10.85;;
23590;SDS011;11973;52.098;7.582;2022-10-04T23:45:15;13.30;;;11.98;;
23590;SDS011;11973;52.098;7.582;2022-10-04T23:47:44;14.07;;;12.05;;
23590;SDS011;11973;52.098;7.582;2022-10-04T23:50:32;13.20;;;11.88;;
23590;SDS011;11973;52.098;7.582;2022-10-04T23:53:02;13.68;;;11.43;;
23590;SDS011;11973;52.098;7.582;2022-10-04T23:55:34;14.73;;;11.80;;
23590;SDS011;11973;52.098;7.582;2022-10-04T23:58:16;12.70;;;11.40;;
